sensor_id;sensor_type;location;lat;lon;timestamp;P1;durP1;ratioP1;P2;durP2;ratioP2
52342;SDS011;38277;51.972;4.624;2023-04-03T00:08:42;4.1;;;1.8;;
52342;SDS011;38277;51.972;4.624;2023-04-03T00:13:08;3.3;;;1.7;;
52342;SDS011;38277;51.972;4.624;2023-04-03T00:17:34;2.5;;;1.5;;
52342;SDS011;38277;51.972;4.624;2023-04-03T00:22:07;3.1;;;1.4;;
52342;SDS011;38277;51.972;4.624;2023-04-03T00:26:34;3.5;;;2.1;;
52342;SDS011;38277;51.972;4.624;2023-04-03T00:31:15;3.3;;;1.7;;
52342;SDS011;38277;51.972;4.624;2023-04-03T00:35:42;2.8;;;1.7;;
52342;SDS011;38277;51.972;4.624;2023-04-03T00:45:32;3.1;;;1.5;;
52342;SDS011;38277;51.972;4.624;2023-04-03T00:49:15;2.9;;;1.5;;
52342;SDS011;38277;51.972;4.624;2023-04-03T00:53:36;3.0;;;1.8;;
52342;SDS011;38277;51.972;4.624;2023-04-03T00:58:04;3.8;;;1.8;;
52342;SDS011;38277;51.972;4.624;2023-04-03T01:02:55;3.4;;;1.5;;
52342;SDS011;38277;51.972;4.624;2023-04-03T01:07:01;4.6;;;1.7;;
52342;SDS011;38277;51.972;4.624;2023-04-03T01:11:43;3.4;;;1.8;;
52342;SDS011;38277;51.972;4.624;2023-04-03T01:16:15;2.6;;;1.7;;
52342;SDS011;38277;51.972;4.624;2023-04-03T01:21:27;3.3;;;1.8;;
52342;SDS011;38277;51.972;4.624;2023-04-03T01:24:58;3.6;;;1.7;;
52342;SDS011;38277;51.972;4.624;2023-04-03T01:29:41;3.7;;;1.6;;
52342;SDS011;38277;51.972;4.624;2023-04-03T01:34:03;3.1;;;1.8;;
52342;SDS011;38277;51.972;4.624;2023-04-03T01:38:46;4.7;;;1.8;;
52342;SDS011;38277;51.972;4.624;2023-04-03T01:43:11;3.7;;;1.6;;
52342;SDS011;38277;51.972;4.624;2023-04-03T01:47:48;3.9;;;2.0;;
52342;SDS011;38277;51.972;4.624;2023-04-03T01:52:25;1.5;;;1.2;;
52342;SDS011;38277;51.972;4.624;2023-04-03T01:56:46;3.1;;;1.8;;
52342;SDS011;38277;51.972;4.624;2023-04-03T02:01:27;3.0;;;1.6;;
52342;SDS011;38277;51.972;4.624;2023-04-03T02:05:35;2.5;;;1.6;;
52342;SDS011;38277;51.972;4.624;2023-04-03T02:10:14;4.1;;;1.8;;
52342;SDS011;38277;51.972;4.624;2023-04-03T02:14:50;3.2;;;1.7;;
52342;SDS011;38277;51.972;4.624;2023-04-03T02:19:24;5.2;;;2.2;;
52342;SDS011;38277;51.972;4.624;2023-04-03T02:23:33;3.8;;;1.6;;
52342;SDS011;38277;51.972;4.624;2023-04-03T02:27:58;3.5;;;2.0;;
52342;SDS011;38277;51.972;4.624;2023-04-03T02:37:02;2.9;;;1.7;;
52342;SDS011;38277;51.972;4.624;2023-04-03T02:41:48;2.7;;;1.6;;
52342;SDS011;38277;51.972;4.624;2023-04-03T02:46:26;5.9;;;1.8;;
52342;SDS011;38277;51.972;4.624;2023-04-03T02:50:56;5.1;;;1.8;;
52342;SDS011;38277;51.972;4.624;2023-04-03T02:55:06;3.5;;;1.8;;
52342;SDS011;38277;51.972;4.624;2023-04-03T02:59:31;3.2;;;1.6;;
52342;SDS011;38277;51.972;4.624;2023-04-03T03:04:18;3.4;;;1.5;;
52342;SDS011;38277;51.972;4.624;2023-04-03T03:13:27;2.1;;;1.4;;
52342;SDS011;38277;51.972;4.624;2023-04-03T03:17:50;2.9;;;1.8;;
52342;SDS011;38277;51.972;4.624;2023-04-03T03:22:46;6.1;;;2.3;;
52342;SDS011;38277;51.972;4.624;2023-04-03T03:27:42;3.8;;;2.0;;
52342;SDS011;38277;51.972;4.624;2023-04-03T03:32:38;4.3;;;1.8;;
52342;SDS011;38277;51.972;4.624;2023-04-03T03:40:05;3.9;;;1.9;;
52342;SDS011;38277;51.972;4.624;2023-04-03T03:45:01;3.2;;;1.7;;
52342;SDS011;38277;51.972;4.624;2023-04-03T03:49:58;3.6;;;1.8;;
52342;SDS011;38277;51.972;4.624;2023-04-03T03:56:32;2.9;;;2.0;;
52342;SDS011;38277;51.972;4.624;2023-04-03T04:02:49;5.8;;;2.2;;
52342;SDS011;38277;51.972;4.624;2023-04-03T04:07:45;3.4;;;2.0;;
52342;SDS011;38277;51.972;4.624;2023-04-03T04:12:41;3.1;;;1.6;;
52342;SDS011;38277;51.972;4.624;2023-04-03T04:19:16;2.9;;;1.8;;
52342;SDS011;38277;51.972;4.624;2023-04-03T04:20:55;2.1;;;1.6;;
52342;SDS011;38277;51.972;4.624;2023-04-03T04:27:03;4.1;;;2.1;;
52342;SDS011;38277;51.972;4.624;2023-04-03T04:29:56;3.2;;;1.9;;
52342;SDS011;38277;51.972;4.624;2023-04-03T04:34:14;4.9;;;2.6;;
52342;SDS011;38277;51.972;4.624;2023-04-03T04:38:41;5.1;;;2.4;;
52342;SDS011;38277;51.972;4.624;2023-04-03T04:44:51;6.7;;;2.7;;
52342;SDS011;38277;51.972;4.624;2023-04-03T04:47:57;4.5;;;2.5;;
52342;SDS011;38277;51.972;4.624;2023-04-03T04:53:51;6.5;;;2.7;;
52342;SDS011;38277;51.972;4.624;2023-04-03T04:56:37;5.5;;;2.4;;
52342;SDS011;38277;51.972;4.624;2023-04-03T05:02:59;4.6;;;2.0;;
52342;SDS011;38277;51.972;4.624;2023-04-03T05:05:28;4.8;;;1.8;;
52342;SDS011;38277;51.972;4.624;2023-04-03T05:10:04;6.6;;;2.2;;
52342;SDS011;38277;51.972;4.624;2023-04-03T05:14:55;4.1;;;2.2;;
52342;SDS011;38277;51.972;4.624;2023-04-03T05:18:59;4.6;;;2.2;;
52342;SDS011;38277;51.972;4.624;2023-04-03T05:28:07;6.2;;;2.2;;
52342;SDS011;38277;51.972;4.624;2023-04-03T05:32:28;4.9;;;1.9;;
52342;SDS011;38277;51.972;4.624;2023-04-03T05:37:03;5.8;;;1.8;;
52342;SDS011;38277;51.972;4.624;2023-04-03T05:46:10;6.2;;;2.2;;
52342;SDS011;38277;51.972;4.624;2023-04-03T05:50:50;10.3;;;2.3;;
52342;SDS011;38277;51.972;4.624;2023-04-03T05:55:23;4.6;;;2.2;;
52342;SDS011;38277;51.972;4.624;2023-04-03T06:04:12;8.9;;;3.6;;
52342;SDS011;38277;51.972;4.624;2023-04-03T06:08:56;7.5;;;2.4;;
52342;SDS011;38277;51.972;4.624;2023-04-03T06:13:02;3.5;;;2.2;;
52342;SDS011;38277;51.972;4.624;2023-04-03T06:17:49;7.0;;;2.9;;
52342;SDS011;38277;51.972;4.624;2023-04-03T06:22:20;4.8;;;2.7;;
52342;SDS011;38277;51.972;4.624;2023-04-03T06:26:46;10.9;;;5.5;;
52342;SDS011;38277;51.972;4.624;2023-04-03T06:31:10;15.1;;;6.2;;
52342;SDS011;38277;51.972;4.624;2023-04-03T06:40:27;11.8;;;5.1;;
52342;SDS011;38277;51.972;4.624;2023-04-03T06:44:50;11.4;;;4.6;;
52342;SDS011;38277;51.972;4.624;2023-04-03T06:49:24;15.3;;;4.6;;
52342;SDS011;38277;51.972;4.624;2023-04-03T06:53:31;16.4;;;6.0;;
52342;SDS011;38277;51.972;4.624;2023-04-03T07:02:47;33.1;;;15.0;;
52342;SDS011;38277;51.972;4.624;2023-04-03T07:15:59;7.6;;;3.0;;
52342;SDS011;38277;51.972;4.624;2023-04-03T07:20:57;6.9;;;3.1;;
52342;SDS011;38277;51.972;4.624;2023-04-03T07:25:03;8.2;;;3.0;;
52342;SDS011;38277;51.972;4.624;2023-04-03T07:34:07;8.5;;;2.4;;
52342;SDS011;38277;51.972;4.624;2023-04-03T07:38:53;7.7;;;2.8;;
52342;SDS011;38277;51.972;4.624;2023-04-03T07:43:14;7.9;;;2.9;;
52342;SDS011;38277;51.972;4.624;2023-04-03T07:52:23;6.6;;;2.8;;
52342;SDS011;38277;51.972;4.624;2023-04-03T07:56:41;8.0;;;2.5;;
52342;SDS011;38277;51.972;4.624;2023-04-03T08:01:03;8.0;;;3.0;;
52342;SDS011;38277;51.972;4.624;2023-04-03T08:05:45;8.2;;;2.5;;
52342;SDS011;38277;51.972;4.624;2023-04-03T08:14:34;8.7;;;2.5;;
52342;SDS011;38277;51.972;4.624;2023-04-03T08:28:03;7.9;;;2.6;;
52342;SDS011;38277;51.972;4.624;2023-04-03T08:32:45;6.6;;;2.8;;
52342;SDS011;38277;51.972;4.624;2023-04-03T08:37:24;8.1;;;2.7;;
52342;SDS011;38277;51.972;4.624;2023-04-03T08:41:31;6.5;;;2.3;;
52342;SDS011;38277;51.972;4.624;2023-04-03T08:46:24;7.0;;;2.5;;
52342;SDS011;38277;51.972;4.624;2023-04-03T08:52:14;5.2;;;2.1;;
52342;SDS011;38277;51.972;4.624;2023-04-03T08:55:25;8.7;;;2.6;;
52342;SDS011;38277;51.972;4.624;2023-04-03T09:01:17;4.7;;;2.1;;
52342;SDS011;38277;51.972;4.624;2023-04-03T09:04:26;6.1;;;2.3;;
52342;SDS011;38277;51.972;4.624;2023-04-03T09:10:14;8.3;;;2.2;;
52342;SDS011;38277;51.972;4.624;2023-04-03T09:13:11;8.0;;;2.7;;
52342;SDS011;38277;51.972;4.624;2023-04-03T09:18:04;6.8;;;2.4;;
52342;SDS011;38277;51.972;4.624;2023-04-03T09:22:07;9.4;;;3.9;;
52342;SDS011;38277;51.972;4.624;2023-04-03T09:28:07;14.0;;;5.9;;
52342;SDS011;38277;51.972;4.624;2023-04-03T09:31:12;17.3;;;7.7;;
52342;SDS011;38277;51.972;4.624;2023-04-03T09:35:56;18.9;;;7.7;;
52342;SDS011;38277;51.972;4.624;2023-04-03T09:40:48;14.3;;;5.3;;
52342;SDS011;38277;51.972;4.624;2023-04-03T09:44:31;9.4;;;3.8;;
52342;SDS011;38277;51.972;4.624;2023-04-03T09:53:55;24.5;;;9.8;;
52342;SDS011;38277;51.972;4.624;2023-04-03T09:58:32;20.7;;;8.4;;
52342;SDS011;38277;51.972;4.624;2023-04-03T10:02:38;20.2;;;8.9;;
52342;SDS011;38277;51.972;4.624;2023-04-03T10:07:39;23.4;;;9.9;;
52342;SDS011;38277;51.972;4.624;2023-04-03T10:12:00;19.3;;;8.2;;
52342;SDS011;38277;51.972;4.624;2023-04-03T10:16:01;5.0;;;1.6;;
52342;SDS011;38277;51.972;4.624;2023-04-03T10:20:51;2.7;;;1.3;;
52342;SDS011;38277;51.972;4.624;2023-04-03T10:29:55;4.2;;;1.5;;
52342;SDS011;38277;51.972;4.624;2023-04-03T10:34:27;4.5;;;1.9;;
52342;SDS011;38277;51.972;4.624;2023-04-03T10:38:55;3.7;;;1.4;;
52342;SDS011;38277;51.972;4.624;2023-04-03T10:43:17;3.1;;;1.1;;
52342;SDS011;38277;51.972;4.624;2023-04-03T10:47:47;4.4;;;1.2;;
52342;SDS011;38277;51.972;4.624;2023-04-03T10:52:26;2.5;;;1.2;;
52342;SDS011;38277;51.972;4.624;2023-04-03T10:56:40;2.8;;;1.3;;
52342;SDS011;38277;51.972;4.624;2023-04-03T11:10:15;2.6;;;1.1;;
52342;SDS011;38277;51.972;4.624;2023-04-03T11:14:39;5.9;;;1.8;;
52342;SDS011;38277;51.972;4.624;2023-04-03T11:18:59;3.3;;;1.3;;
52342;SDS011;38277;51.972;4.624;2023-04-03T11:23:41;1.1;;;0.9;;
52342;SDS011;38277;51.972;4.624;2023-04-03T11:29:44;2.4;;;0.8;;
52342;SDS011;38277;51.972;4.624;2023-04-03T11:33:18;1.4;;;0.9;;
52342;SDS011;38277;51.972;4.624;2023-04-03T11:39:00;0.8;;;0.6;;
52342;SDS011;38277;51.972;4.624;2023-04-03T11:41:49;2.8;;;0.7;;
52342;SDS011;38277;51.972;4.624;2023-04-03T11:47:53;1.3;;;0.7;;
52342;SDS011;38277;51.972;4.624;2023-04-03T11:50:45;1.1;;;0.6;;
52342;SDS011;38277;51.972;4.624;2023-04-03T11:59:56;1.3;;;0.8;;
52342;SDS011;38277;51.972;4.624;2023-04-03T12:05:37;0.7;;;0.6;;
52342;SDS011;38277;51.972;4.624;2023-04-03T12:08:55;0.6;;;0.5;;
52342;SDS011;38277;51.972;4.624;2023-04-03T12:14:47;2.2;;;0.7;;
52342;SDS011;38277;51.972;4.624;2023-04-03T12:17:42;1.3;;;0.6;;
52342;SDS011;38277;51.972;4.624;2023-04-03T12:24:23;1.5;;;0.7;;
52342;SDS011;38277;51.972;4.624;2023-04-03T12:26:48;1.4;;;0.9;;
52342;SDS011;38277;51.972;4.624;2023-04-03T12:31:14;2.5;;;1.1;;
52342;SDS011;38277;51.972;4.624;2023-04-03T12:38:22;2.8;;;1.1;;
52342;SDS011;38277;51.972;4.624;2023-04-03T12:42:33;2.5;;;1.0;;
52342;SDS011;38277;51.972;4.624;2023-04-03T12:45:21;1.4;;;1.0;;
52342;SDS011;38277;51.972;4.624;2023-04-03T12:49:33;2.0;;;0.9;;
52342;SDS011;38277;51.972;4.624;2023-04-03T12:55:16;1.8;;;1.0;;
52342;SDS011;38277;51.972;4.624;2023-04-03T13:00:27;2.5;;;0.9;;
52342;SDS011;38277;51.972;4.624;2023-04-03T13:02:34;2.5;;;1.1;;
52342;SDS011;38277;51.972;4.624;2023-04-03T13:07:04;1.4;;;0.8;;
52342;SDS011;38277;51.972;4.624;2023-04-03T13:12:07;2.2;;;1.1;;
52342;SDS011;38277;51.972;4.624;2023-04-03T13:17:47;3.7;;;0.9;;
52342;SDS011;38277;51.972;4.624;2023-04-03T13:20:30;1.7;;;0.8;;
52342;SDS011;38277;51.972;4.624;2023-04-03T13:25:17;2.1;;;1.0;;
52342;SDS011;38277;51.972;4.624;2023-04-03T13:29:38;1.3;;;0.7;;
52342;SDS011;38277;51.972;4.624;2023-04-03T13:35:45;2.4;;;1.4;;
52342;SDS011;38277;51.972;4.624;2023-04-03T13:38:57;1.5;;;0.9;;
52342;SDS011;38277;51.972;4.624;2023-04-03T13:43:18;2.0;;;1.0;;
52342;SDS011;38277;51.972;4.624;2023-04-03T13:47:50;2.0;;;1.1;;
52342;SDS011;38277;51.972;4.624;2023-04-03T13:53:54;2.9;;;1.3;;
52342;SDS011;38277;51.972;4.624;2023-04-03T13:56:56;1.5;;;1.0;;
52342;SDS011;38277;51.972;4.624;2023-04-03T14:01:19;1.9;;;0.9;;
52342;SDS011;38277;51.972;4.624;2023-04-03T14:05:47;2.4;;;1.0;;
52342;SDS011;38277;51.972;4.624;2023-04-03T14:10:21;2.7;;;1.2;;
52342;SDS011;38277;51.972;4.624;2023-04-03T14:19:19;1.8;;;1.0;;
52342;SDS011;38277;51.972;4.624;2023-04-03T14:23:51;3.3;;;0.9;;
52342;SDS011;38277;51.972;4.624;2023-04-03T14:28:28;2.1;;;1.0;;
52342;SDS011;38277;51.972;4.624;2023-04-03T14:32:37;2.5;;;0.9;;
52342;SDS011;38277;51.972;4.624;2023-04-03T14:37:20;1.8;;;0.9;;
52342;SDS011;38277;51.972;4.624;2023-04-03T14:41:45;3.0;;;1.3;;
52342;SDS011;38277;51.972;4.624;2023-04-03T14:46:00;2.7;;;0.9;;
52342;SDS011;38277;51.972;4.624;2023-04-03T14:55:25;1.3;;;0.8;;
52342;SDS011;38277;51.972;4.624;2023-04-03T14:59:38;1.9;;;1.2;;
52342;SDS011;38277;51.972;4.624;2023-04-03T15:05:59;2.9;;;1.2;;
52342;SDS011;38277;51.972;4.624;2023-04-03T15:08:30;2.3;;;1.2;;
52342;SDS011;38277;51.972;4.624;2023-04-03T15:14:53;2.4;;;1.2;;
52342;SDS011;38277;51.972;4.624;2023-04-03T15:17:31;3.7;;;1.5;;
52342;SDS011;38277;51.972;4.624;2023-04-03T15:22:16;1.8;;;0.9;;
52342;SDS011;38277;51.972;4.624;2023-04-03T15:26:42;1.8;;;0.9;;
52342;SDS011;38277;51.972;4.624;2023-04-03T15:32:54;1.7;;;1.0;;
52342;SDS011;38277;51.972;4.624;2023-04-03T15:35:39;2.0;;;1.4;;
52342;SDS011;38277;51.972;4.624;2023-04-03T15:40:24;1.9;;;1.1;;
52342;SDS011;38277;51.972;4.624;2023-04-03T15:44:55;2.9;;;1.2;;
52342;SDS011;38277;51.972;4.624;2023-04-03T15:50:57;2.2;;;1.1;;
52342;SDS011;38277;51.972;4.624;2023-04-03T15:53:31;2.7;;;1.0;;
52342;SDS011;38277;51.972;4.624;2023-04-03T15:58:07;2.3;;;1.1;;
52342;SDS011;38277;51.972;4.624;2023-04-03T16:02:54;1.8;;;1.1;;
52342;SDS011;38277;51.972;4.624;2023-04-03T16:07:17;2.8;;;1.0;;
52342;SDS011;38277;51.972;4.624;2023-04-03T16:16:14;2.8;;;1.2;;
52342;SDS011;38277;51.972;4.624;2023-04-03T16:20:53;2.4;;;1.3;;
52342;SDS011;38277;51.972;4.624;2023-04-03T16:25:07;2.2;;;1.3;;
52342;SDS011;38277;51.972;4.624;2023-04-03T16:29:56;3.6;;;1.5;;
52342;SDS011;38277;51.972;4.624;2023-04-03T16:34:24;5.1;;;1.6;;
52342;SDS011;38277;51.972;4.624;2023-04-03T16:38:40;3.4;;;1.4;;
52342;SDS011;38277;51.972;4.624;2023-04-03T16:43:11;5.1;;;2.3;;
52342;SDS011;38277;51.972;4.624;2023-04-03T16:52:14;1.7;;;1.4;;
52342;SDS011;38277;51.972;4.624;2023-04-03T16:56:35;5.4;;;1.7;;
52342;SDS011;38277;51.972;4.624;2023-04-03T17:01:27;3.6;;;1.3;;
52342;SDS011;38277;51.972;4.624;2023-04-03T17:05:29;2.2;;;1.4;;
52342;SDS011;38277;51.972;4.624;2023-04-03T17:10:11;3.3;;;1.5;;
52342;SDS011;38277;51.972;4.624;2023-04-03T17:14:42;6.3;;;1.9;;
52342;SDS011;38277;51.972;4.624;2023-04-03T17:19:03;3.7;;;1.6;;
52342;SDS011;38277;51.972;4.624;2023-04-03T17:23:35;3.0;;;1.5;;
52342;SDS011;38277;51.972;4.624;2023-04-03T17:28:05;4.0;;;1.7;;
52342;SDS011;38277;51.972;4.624;2023-04-03T17:32:36;5.1;;;2.3;;
52342;SDS011;38277;51.972;4.624;2023-04-03T17:37:17;8.2;;;3.9;;
52342;SDS011;38277;51.972;4.624;2023-04-03T17:41:35;5.7;;;2.6;;
52342;SDS011;38277;51.972;4.624;2023-04-03T17:46:00;4.3;;;2.0;;
52342;SDS011;38277;51.972;4.624;2023-04-03T17:50:49;4.7;;;1.6;;
52342;SDS011;38277;51.972;4.624;2023-04-03T17:55:09;3.3;;;1.6;;
52342;SDS011;38277;51.972;4.624;2023-04-03T17:59:43;3.9;;;2.0;;
52342;SDS011;38277;51.972;4.624;2023-04-03T18:04:05;3.8;;;1.7;;
52342;SDS011;38277;51.972;4.624;2023-04-03T18:08:34;4.8;;;1.8;;
52342;SDS011;38277;51.972;4.624;2023-04-03T18:13:20;5.3;;;1.7;;
52342;SDS011;38277;51.972;4.624;2023-04-03T18:17:28;3.9;;;1.9;;
52342;SDS011;38277;51.972;4.624;2023-04-03T18:26:55;5.9;;;2.2;;
52342;SDS011;38277;51.972;4.624;2023-04-03T18:31:08;6.6;;;3.7;;
52342;SDS011;38277;51.972;4.624;2023-04-03T18:40:17;7.9;;;2.0;;
52342;SDS011;38277;51.972;4.624;2023-04-03T18:44:44;4.8;;;2.0;;
52342;SDS011;38277;51.972;4.624;2023-04-03T18:49:09;5.9;;;2.1;;
52342;SDS011;38277;51.972;4.624;2023-04-03T18:53:28;4.6;;;2.5;;
52342;SDS011;38277;51.972;4.624;2023-04-03T19:02:50;2.8;;;1.8;;
52342;SDS011;38277;51.972;4.624;2023-04-03T19:07:07;5.6;;;2.0;;
52342;SDS011;38277;51.972;4.624;2023-04-03T19:11:48;3.5;;;1.9;;
52342;SDS011;38277;51.972;4.624;2023-04-03T19:16:10;4.8;;;2.1;;
52342;SDS011;38277;51.972;4.624;2023-04-03T19:20:32;4.3;;;2.3;;
52342;SDS011;38277;51.972;4.624;2023-04-03T19:27:02;5.6;;;1.7;;
52342;SDS011;38277;51.972;4.624;2023-04-03T19:29:37;2.8;;;1.6;;
52342;SDS011;38277;51.972;4.624;2023-04-03T19:34:11;6.7;;;2.3;;
52342;SDS011;38277;51.972;4.624;2023-04-03T19:38:56;3.9;;;2.0;;
52342;SDS011;38277;51.972;4.624;2023-04-03T19:44:54;4.0;;;1.7;;
52342;SDS011;38277;51.972;4.624;2023-04-03T19:47:42;12.1;;;4.7;;
52342;SDS011;38277;51.972;4.624;2023-04-03T19:53:56;7.7;;;2.8;;
52342;SDS011;38277;51.972;4.624;2023-04-03T19:56:39;3.8;;;1.9;;
52342;SDS011;38277;51.972;4.624;2023-04-03T20:02:51;4.9;;;1.9;;
52342;SDS011;38277;51.972;4.624;2023-04-03T20:05:32;4.8;;;1.7;;
52342;SDS011;38277;51.972;4.624;2023-04-03T20:10:03;4.1;;;2.0;;
52342;SDS011;38277;51.972;4.624;2023-04-03T20:14:43;5.8;;;2.3;;
52342;SDS011;38277;51.972;4.624;2023-04-03T20:28:14;3.9;;;1.8;;
52342;SDS011;38277;51.972;4.624;2023-04-03T20:32:47;3.6;;;1.5;;
52342;SDS011;38277;51.972;4.624;2023-04-03T20:37:18;3.3;;;1.8;;
52342;SDS011;38277;51.972;4.624;2023-04-03T20:46:04;4.1;;;1.8;;
52342;SDS011;38277;51.972;4.624;2023-04-03T20:50:36;3.0;;;1.5;;
52342;SDS011;38277;51.972;4.624;2023-04-03T20:55:05;4.5;;;2.4;;
52342;SDS011;38277;51.972;4.624;2023-04-03T21:04:31;3.7;;;2.1;;
52342;SDS011;38277;51.972;4.624;2023-04-03T21:21:58;3.8;;;1.8;;
52342;SDS011;38277;51.972;4.624;2023-04-03T21:26:30;3.5;;;1.7;;
52342;SDS011;38277;51.972;4.624;2023-04-03T21:31:19;4.7;;;2.0;;
52342;SDS011;38277;51.972;4.624;2023-04-03T21:35:42;4.4;;;2.3;;
52342;SDS011;38277;51.972;4.624;2023-04-03T21:40:11;4.1;;;1.8;;
52342;SDS011;38277;51.972;4.624;2023-04-03T21:44:32;3.7;;;1.8;;
52342;SDS011;38277;51.972;4.624;2023-04-03T21:49:20;2.9;;;2.1;;
52342;SDS011;38277;51.972;4.624;2023-04-03T21:53:30;6.6;;;3.2;;
52342;SDS011;38277;51.972;4.624;2023-04-03T21:58:00;6.6;;;2.8;;
52342;SDS011;38277;51.972;4.624;2023-04-03T22:02:28;4.9;;;2.5;;
52342;SDS011;38277;51.972;4.624;2023-04-03T22:07:21;4.1;;;2.1;;
52342;SDS011;38277;51.972;4.624;2023-04-03T22:11:48;4.4;;;1.9;;
52342;SDS011;38277;51.972;4.624;2023-04-03T22:16:27;4.1;;;2.0;;
52342;SDS011;38277;51.972;4.624;2023-04-03T22:20:47;3.4;;;1.8;;
52342;SDS011;38277;51.972;4.624;2023-04-03T22:25:00;4.3;;;2.2;;
52342;SDS011;38277;51.972;4.624;2023-04-03T22:29:41;4.4;;;2.2;;
52342;SDS011;38277;51.972;4.624;2023-04-03T22:34:25;5.1;;;1.8;;
52342;SDS011;38277;51.972;4.624;2023-04-03T22:38:51;4.4;;;1.8;;
52342;SDS011;38277;51.972;4.624;2023-04-03T22:43:27;4.7;;;2.0;;
52342;SDS011;38277;51.972;4.624;2023-04-03T22:47:51;2.2;;;1.6;;
52342;SDS011;38277;51.972;4.624;2023-04-03T22:52:16;2.8;;;2.0;;
52342;SDS011;38277;51.972;4.624;2023-04-03T22:56:30;4.4;;;2.1;;
52342;SDS011;38277;51.972;4.624;2023-04-03T23:01:02;5.5;;;2.2;;
52342;SDS011;38277;51.972;4.624;2023-04-03T23:05:29;4.5;;;1.9;;
52342;SDS011;38277;51.972;4.624;2023-04-03T23:10:28;4.3;;;2.1;;
52342;SDS011;38277;51.972;4.624;2023-04-03T23:14:34;3.7;;;1.8;;
52342;SDS011;38277;51.972;4.624;2023-04-03T23:19:08;3.6;;;2.0;;
52342;SDS011;38277;51.972;4.624;2023-04-03T23:23:50;4.7;;;2.4;;
52342;SDS011;38277;51.972;4.624;2023-04-03T23:28:17;5.9;;;2.1;;
52342;SDS011;38277;51.972;4.624;2023-04-03T23:32:53;5.0;;;2.0;;
52342;SDS011;38277;51.972;4.624;2023-04-03T23:36:58;3.8;;;2.0;;
52342;SDS011;38277;51.972;4.624;2023-04-03T23:46:09;5.2;;;2.0;;
52342;SDS011;38277;51.972;4.624;2023-04-03T23:50:38;3.6;;;2.1;;
52342;SDS011;38277;51.972;4.624;2023-04-03T23:55:19;6.9;;;2.3;;
52342;SDS011;38277;51.972;4.624;2023-04-03T23:59:43;6.0;;;2.3;;
